Time;durP1;ratioP1;P1;durP2;ratioP2;P2;SDS_P1;SDS_P2;PMS_P1;PMS_P2;Temp;Humidity;BMP_temperature;BMP_pressure;BME280_temperature;BME280_humidity;BME280_pressure;Samples;Min_cycle;Max_cycle;Signal;HPM_P1;HPM_P2
2020/12/11 15:58:42;;;;;;;111.97;36.25;;;;;;;-0.77;100.00;99604.63;5068115;27;20679;-56
2020/12/11 16:01:09;;;;;;;112.40;37.97;;;;;;;-0.62;99.46;99605.91;5060914;28;20604;-55
2020/12/11 16:03:36;;;;;;;110.13;36.55;;;;;;;-0.56;99.12;99604.88;5062898;28;20517;-53
2020/12/11 16:06:02;;;;;;;97.53;36.20;;;;;;;-0.37;98.30;99605.16;5055830;28;20155;-56
2020/12/11 16:08:29;;;;;;;107.95;35.97;;;;;;;-0.44;97.56;99606.25;5041094;28;20064;-52
2020/12/11 16:10:57;;;;;;;106.10;39.13;;;;;;;-0.58;98.37;99617.84;5059418;28;20576;-60
2020/12/11 16:13:23;;;;;;;108.90;38.30;;;;;;;-0.62;98.79;99620.56;5060736;28;20053;-57
2020/12/11 16:15:50;;;;;;;113.63;38.13;;;;;;;-0.58;98.34;99619.59;5063200;28;20139;-58
2020/12/11 16:18:17;;;;;;;106.93;38.08;;;;;;;-0.56;98.42;99622.97;5058654;28;20040;-55
2020/12/11 16:20:44;;;;;;;114.20;38.08;;;;;;;-0.57;98.38;99614.38;5059977;28;20057;-51
2020/12/11 16:23:11;;;;;;;108.95;36.08;;;;;;;-0.54;97.88;99616.00;5059495;28;20049;-54
2020/12/11 16:25:37;;;;;;;108.20;38.72;;;;;;;-0.53;98.48;99609.97;5061575;28;20056;-54
2020/12/11 16:28:05;;;;;;;118.63;41.20;;;;;;;-0.48;97.91;99604.66;5052737;28;20067;-49
2020/12/11 16:30:37;;;;;;;138.68;41.65;;;;;;;-0.46;98.01;99610.59;5037466;28;20152;-57
2020/12/11 16:33:06;;;;;;;113.03;39.13;;;;;;;-0.45;97.44;99608.00;5054866;28;20067;-53
2020/12/11 16:35:34;;;;;;;113.72;39.47;;;;;;;-0.44;97.42;99607.09;5036298;28;20072;-54
2020/12/11 16:38:01;;;;;;;113.53;38.78;;;;;;;-0.52;97.39;99606.47;5050336;28;20152;-57
2020/12/11 16:40:28;;;;;;;119.00;40.03;;;;;;;-0.68;98.70;99613.81;5059347;28;20045;-55
2020/12/11 16:43:06;;;;;;;116.95;38.88;;;;;;;-0.51;97.91;99601.25;5054750;28;20057;-59
2020/12/11 16:45:34;;;;;;;108.95;37.30;;;;;;;-0.54;98.31;99605.66;5050209;28;20055;-57
2020/12/11 16:48:02;;;;;;;110.50;35.97;;;;;;;-0.58;98.72;99597.19;5046354;28;20493;-57
2020/12/11 16:50:29;;;;;;;112.43;38.90;;;;;;;-0.55;98.03;99593.63;5050237;28;20057;-55
2020/12/11 16:52:55;;;;;;;122.55;43.08;;;;;;;-0.63;98.79;99603.34;5046551;28;20049;-57
2020/12/11 16:55:22;;;;;;;97.57;37.67;;;;;;;-0.61;98.95;99606.75;5048463;28;20061;-57
2020/12/11 16:57:49;;;;;;;111.97;37.63;;;;;;;-0.61;98.75;99601.59;5051463;28;20052;-56
2020/12/11 17:00:18;;;;;;;122.47;40.78;;;;;;;-0.55;98.58;99606.56;5051340;28;20067;-58
2020/12/11 17:08:00;;;;;;;106.40;38.53;;;;;;;-0.57;99.29;99600.59;5051372;28;20041;-59
2020/12/11 17:10:27;;;;;;;104.22;35.53;;;;;;;-0.63;98.99;99605.94;5044788;28;20456;-56
2020/12/11 17:12:54;;;;;;;99.38;37.00;;;;;;;-0.64;99.55;99607.66;5045021;28;20060;-58
2020/12/11 17:15:20;;;;;;;98.57;36.33;;;;;;;-0.60;99.36;99614.44;5043354;28;20067;-53
2020/12/11 17:17:47;;;;;;;99.18;36.90;;;;;;;-0.63;99.35;99614.56;5040499;28;20147;-50
2020/12/11 17:20:14;;;;;;;105.90;37.67;;;;;;;-0.68;99.82;99610.41;5043982;28;20502;-56
2020/12/11 17:22:41;;;;;;;113.80;38.97;;;;;;;-0.67;100.00;99612.94;5041514;28;20069;-54
2020/12/11 17:25:08;;;;;;;106.20;35.83;;;;;;;-0.70;99.62;99610.44;5028650;28;20498;-52
2020/12/11 17:27:36;;;;;;;109.57;37.30;;;;;;;-0.69;100.00;99606.13;5039871;28;20390;-54
2020/12/11 17:30:16;;;;;;;115.75;40.83;;;;;;;-0.60;100.00;99614.44;5046498;28;20064;-57
2020/12/11 17:35:13;;;;;;;109.78;38.78;;;;;;;-0.52;99.61;99612.50;5026529;28;20049;-58
2020/12/11 17:37:39;;;;;;;119.25;40.50;;;;;;;-0.57;99.34;99618.69;5041039;28;20052;-59
2020/12/11 17:40:06;;;;;;;117.13;37.58;;;;;;;-0.54;99.12;99609.13;5064506;22;20071;-64
2020/12/11 17:42:33;;;;;;;111.85;37.80;;;;;;;-0.63;99.34;99606.81;5000907;28;20069;-61
2020/12/11 17:45:00;;;;;;;110.18;39.03;;;;;;;-0.53;99.30;99605.63;5003034;28;20419;-61
2020/12/11 17:47:27;;;;;;;111.75;37.60;;;;;;;-0.63;99.95;99603.34;4988187;28;20136;-60
2020/12/11 17:49:54;;;;;;;101.30;35.30;;;;;;;-0.65;99.73;99600.81;5003298;28;20058;-60
2020/12/11 17:52:21;;;;;;;113.75;37.90;;;;;;;-0.68;100.00;99603.47;5005514;28;20054;-62
2020/12/11 17:54:47;;;;;;;105.07;35.88;;;;;;;-0.71;100.00;99603.59;5005520;28;20481;-62
2020/12/11 17:57:14;;;;;;;107.10;36.40;;;;;;;-0.65;100.00;99602.56;5003286;28;20057;-63
2020/12/11 17:59:41;;;;;;;105.57;39.60;;;;;;;-0.60;100.00;99598.94;4997668;28;20045;-62
2020/12/11 18:02:08;;;;;;;108.65;37.13;;;;;;;-0.60;99.77;99595.50;5009572;28;20049;-60
2020/12/11 18:04:37;;;;;;;114.43;38.17;;;;;;;-0.61;99.49;99586.91;5007332;28;20054;-61
2020/12/11 18:07:04;;;;;;;117.80;38.97;;;;;;;-0.59;99.74;99589.44;5003269;28;20042;-61
2020/12/11 18:09:30;;;;;;;114.78;40.00;;;;;;;-0.59;99.73;99579.09;4998814;28;20050;-61
2020/12/11 18:11:58;;;;;;;108.95;37.70;;;;;;;-0.56;99.58;99582.44;4975438;28;20041;-61
2020/12/11 18:14:26;;;;;;;105.28;38.05;;;;;;;-0.53;99.35;99584.94;5002778;28;20482;-63
2020/12/11 18:16:54;;;;;;;112.55;39.80;;;;;;;-0.58;99.46;99581.66;5001814;28;20541;-60
2020/12/11 18:19:22;;;;;;;110.10;37.90;;;;;;;-0.44;99.31;99583.81;4998877;28;20064;-63
2020/12/11 18:21:53;;;;;;;115.70;38.53;;;;;;;-0.33;98.85;99588.66;4995228;28;20065;-61
2020/12/11 18:24:24;;;;;;;110.72;37.33;;;;;;;-0.35;98.36;99575.78;4999163;28;20046;-64
2020/12/11 18:26:54;;;;;;;100.95;37.97;;;;;;;-0.30;98.27;99579.06;5011690;28;20066;-62
2020/12/11 18:29:23;;;;;;;110.43;40.40;;;;;;;-0.36;98.06;99578.41;5010138;28;20064;-59
2020/12/11 18:31:50;;;;;;;99.90;35.83;;;;;;;-0.35;98.17;99575.78;4984019;28;20081;-59
2020/12/11 18:34:18;;;;;;;98.93;36.83;;;;;;;-0.46;98.26;99577.84;5007607;28;20053;-58
2020/12/11 18:36:46;;;;;;;98.13;35.38;;;;;;;-0.34;97.63;99571.47;5005387;28;20188;-59
2020/12/11 18:39:13;;;;;;;117.18;41.55;;;;;;;-0.48;97.67;99565.88;5004923;28;20060;-60
2020/12/11 18:41:40;;;;;;;99.82;37.67;;;;;;;-0.26;98.43;99561.72;4991944;28;20057;-59
2020/12/11 18:44:06;;;;;;;105.07;37.13;;;;;;;-0.28;97.93;99559.16;4991583;28;20068;-62
2020/12/11 18:46:34;;;;;;;108.20;38.00;;;;;;;-0.32;97.31;99556.72;5009486;28;20395;-58
2020/12/11 18:49:01;;;;;;;101.25;37.83;;;;;;;-0.26;97.35;99561.72;4990257;28;20414;-60
2020/12/11 18:51:28;;;;;;;96.78;36.47;;;;;;;-0.30;96.99;99552.38;5009245;28;20050;-61
2020/12/11 18:53:55;;;;;;;94.22;36.45;;;;;;;-0.32;97.08;99548.97;5007844;28;20442;-61
2020/12/11 18:56:35;;;;;;;100.55;38.08;;;;;;;-0.27;97.14;99550.53;5010424;28;20455;-54
2020/12/11 18:59:04;;;;;;;96.07;35.80;;;;;;;-0.29;97.60;99551.47;5004384;28;20423;-59
2020/12/11 19:01:32;;;;;;;97.18;36.83;;;;;;;-0.23;97.26;99547.81;4992994;28;20053;-62
2020/12/11 19:03:59;;;;;;;100.10;36.80;;;;;;;-0.28;96.72;99542.81;4999540;28;20061;-62
2020/12/11 19:06:26;;;;;;;98.78;37.65;;;;;;;-0.37;96.68;99537.94;5002068;28;20156;-61
2020/12/11 19:08:53;;;;;;;100.38;36.22;;;;;;;-0.38;96.60;99537.09;4998331;28;20054;-59
2020/12/11 19:11:21;;;;;;;103.78;37.45;;;;;;;-0.44;97.02;99536.44;5003028;28;20046;-59
2020/12/11 19:13:48;;;;;;;112.30;39.38;;;;;;;-0.52;97.19;99539.25;4987322;28;20084;-62
2020/12/11 19:16:16;;;;;;;118.90;39.13;;;;;;;-0.44;97.79;99536.44;5007300;28;20054;-64
2020/12/11 19:18:43;;;;;;;111.82;41.08;;;;;;;-0.63;97.94;99541.31;5002182;28;20042;-62
2020/12/11 19:21:10;;;;;;;106.03;39.33;;;;;;;-0.42;97.57;99534.66;4988791;28;20054;-61
2020/12/11 19:23:37;;;;;;;110.90;43.10;;;;;;;-0.44;97.23;99531.28;4999770;28;20054;-62
2020/12/11 19:26:06;;;;;;;113.28;41.22;;;;;;;-0.54;97.04;99535.88;5005706;28;20615;-64
2020/12/11 19:28:34;;;;;;;111.70;40.45;;;;;;;-0.64;97.65;99537.88;4994386;28;20058;-60
2020/12/11 19:31:00;;;;;;;119.40;42.63;;;;;;;-0.54;97.55;99541.91;5002633;28;21794;-60
2020/12/11 19:33:27;;;;;;;114.22;41.17;;;;;;;-0.51;97.54;99535.78;5004773;28;20061;-62
2020/12/11 19:35:55;;;;;;;119.70;42.20;;;;;;;-0.47;97.25;99529.63;4987420;28;20140;-64
2020/12/11 19:38:21;;;;;;;121.82;42.65;;;;;;;-0.51;97.14;99536.63;5001160;28;20088;-63
2020/12/11 19:40:49;;;;;;;129.35;44.72;;;;;;;-0.53;97.40;99533.25;4983042;28;20049;-62
2020/12/11 19:43:16;;;;;;;120.90;40.72;;;;;;;-0.52;97.38;99534.09;4964763;28;20054;-63
2020/12/11 19:45:43;;;;;;;124.75;45.95;;;;;;;-0.55;97.05;99529.00;5009590;28;20065;-63
2020/12/11 19:48:09;;;;;;;129.05;45.35;;;;;;;-0.70;97.63;99530.34;5005516;28;20080;-64
2020/12/11 19:50:36;;;;;;;137.15;47.67;;;;;;;-0.61;97.45;99542.13;5013513;28;20113;-62
2020/12/11 19:53:03;;;;;;;138.50;44.78;;;;;;;-0.69;97.57;99542.34;4996368;28;20058;-62
2020/12/11 19:55:32;;;;;;;126.97;44.28;;;;;;;-0.68;97.55;99536.28;4992307;28;20052;-61
2020/12/11 19:57:58;;;;;;;126.78;46.92;;;;;;;-0.70;97.43;99529.50;4997843;28;20068;-62
2020/12/11 20:00:25;;;;;;;137.75;47.33;;;;;;;-0.63;97.56;99538.72;5005899;28;20415;-62
2020/12/11 20:02:52;;;;;;;133.48;45.35;;;;;;;-0.69;97.17;99533.75;4999393;28;20057;-62
2020/12/11 20:05:19;;;;;;;134.50;48.03;;;;;;;-0.71;97.67;99520.91;5002035;28;20045;-63
2020/12/11 20:10:31;;;;;;;124.10;44.20;;;;;;;-0.62;97.43;99536.13;5000038;28;20542;-61
2020/12/11 20:12:59;;;;;;;126.90;44.22;;;;;;;-0.71;98.13;99531.22;5003812;28;20454;-63
2020/12/11 20:15:26;;;;;;;145.70;47.58;;;;;;;-0.64;97.51;99531.88;5003399;28;20064;-59
2020/12/11 20:17:54;;;;;;;138.93;46.60;;;;;;;-0.62;97.67;99523.19;5000905;28;20140;-62
2020/12/11 20:20:22;;;;;;;151.13;48.50;;;;;;;-0.56;97.25;99523.00;5002847;28;20073;-60
2020/12/11 20:22:49;;;;;;;121.55;46.22;;;;;;;-0.60;97.28;99515.38;5003313;28;20538;-65
2020/12/11 20:25:16;;;;;;;133.43;46.38;;;;;;;-0.60;97.56;99511.06;4988401;28;20137;-65
2020/12/11 20:27:43;;;;;;;138.05;46.30;;;;;;;-0.68;97.44;99514.78;4996602;28;20038;-63
2020/12/11 20:30:10;;;;;;;141.75;47.85;;;;;;;-0.65;97.34;99522.44;4978887;28;20045;-64
2020/12/11 20:32:37;;;;;;;121.22;42.75;;;;;;;-0.62;97.12;99507.69;4981186;28;20056;-64
2020/12/11 20:35:04;;;;;;;140.80;48.17;;;;;;;-0.62;97.59;99510.28;4998804;28;20053;-62
2020/12/11 20:37:31;;;;;;;143.85;45.97;;;;;;;-0.61;97.50;99517.13;4995020;28;20211;-63
2020/12/11 20:39:58;;;;;;;136.70;47.38;;;;;;;-0.75;97.95;99506.38;4978317;28;20570;-62
2020/12/11 20:42:25;;;;;;;135.63;45.60;;;;;;;-0.63;97.46;99508.59;5002369;28;20795;-63
2020/12/11 20:44:51;;;;;;;134.73;45.08;;;;;;;-0.61;97.43;99518.88;5005807;28;20042;-64
2020/12/11 20:47:19;;;;;;;146.95;49.13;;;;;;;-0.69;97.85;99508.75;4996683;28;20461;-61
2020/12/11 20:49:46;;;;;;;146.90;47.30;;;;;;;-0.64;97.81;99501.69;4989432;28;20050;-63
2020/12/11 20:52:13;;;;;;;152.45;49.17;;;;;;;-0.55;97.26;99506.59;4985312;28;21094;-63
2020/12/11 20:54:40;;;;;;;143.60;46.72;;;;;;;-0.56;97.06;99504.06;4973942;28;20073;-63
2020/12/11 20:57:07;;;;;;;145.02;51.35;;;;;;;-0.67;97.30;99504.41;4999101;28;20062;-63
2020/12/11 20:59:34;;;;;;;135.73;44.83;;;;;;;-0.62;97.39;99497.34;4993390;28;20117;-62
2020/12/11 21:02:01;;;;;;;148.07;47.08;;;;;;;-0.66;97.53;99497.50;4980195;28;20053;-64
2020/12/11 21:04:28;;;;;;;144.02;45.45;;;;;;;-0.70;97.12;99493.31;5002084;28;20109;-63
2020/12/11 21:06:55;;;;;;;134.23;44.42;;;;;;;-0.73;97.37;99489.06;4988478;28;20057;-62
2020/12/11 21:09:28;;;;;;;148.73;51.05;;;;;;;-0.74;97.69;99492.56;4999519;28;20056;-64
2020/12/11 21:11:55;;;;;;;132.27;46.28;;;;;;;-0.72;97.75;99490.78;4998755;28;20054;-63
2020/12/11 21:14:22;;;;;;;143.73;45.22;;;;;;;-0.72;97.08;99500.25;5003961;28;20050;-63
2020/12/11 21:16:50;;;;;;;140.27;44.70;;;;;;;-0.72;97.43;99503.72;4982890;28;20054;-65
2020/12/11 21:19:17;;;;;;;129.43;45.30;;;;;;;-0.71;97.12;99500.22;4964952;28;20125;-62
2020/12/11 21:21:44;;;;;;;125.40;45.47;;;;;;;-0.69;97.25;99492.41;4999899;28;20062;-62
2020/12/11 21:24:11;;;;;;;131.60;44.05;;;;;;;-0.62;96.82;99491.34;4979581;28;20054;-64
2020/12/11 21:26:38;;;;;;;130.32;42.10;;;;;;;-0.60;97.25;99489.53;4993336;28;20049;-61
2020/12/11 21:29:05;;;;;;;129.80;43.67;;;;;;;-0.54;96.87;99479.00;4996481;28;20037;-62
2020/12/11 21:31:32;;;;;;;119.70;43.65;;;;;;;-0.62;97.12;99492.19;4995796;28;20145;-64
2020/12/11 21:36:44;;;;;;;121.93;43.30;;;;;;;-0.55;96.92;99479.88;4997187;28;20058;-65
2020/12/11 21:39:11;;;;;;;127.30;44.10;;;;;;;-0.53;96.98;99488.47;5001421;28;20134;-62
2020/12/11 21:41:38;;;;;;;132.68;44.50;;;;;;;-0.43;96.68;99495.03;4977729;28;20250;-64
2020/12/11 21:44:04;;;;;;;126.53;42.75;;;;;;;-0.49;96.69;99487.47;5000353;28;20042;-63
2020/12/11 21:46:31;;;;;;;126.60;43.05;;;;;;;-0.35;96.27;99485.28;5000030;28;20148;-64
2020/12/11 21:48:59;;;;;;;118.65;42.05;;;;;;;-0.38;96.22;99476.78;4998298;28;20050;-60
2020/12/11 21:51:27;;;;;;;121.43;43.20;;;;;;;-0.29;95.70;99484.22;4999989;28;20054;-64
2020/12/11 21:53:55;;;;;;;124.35;43.78;;;;;;;-0.40;95.90;99483.75;5003204;28;20153;-62
2020/12/11 21:56:22;;;;;;;118.70;43.38;;;;;;;-0.39;96.13;99483.69;4975569;28;20041;-64
2020/12/11 21:58:49;;;;;;;121.38;42.00;;;;;;;-0.36;96.33;99472.38;4983433;28;20145;-65
2020/12/11 22:01:17;;;;;;;135.70;50.70;;;;;;;-0.21;96.30;99473.63;4998266;28;20607;-61
2020/12/11 22:03:44;;;;;;;123.38;41.47;;;;;;;-0.28;96.48;99468.66;4980674;28;20062;-61
2020/12/11 22:06:11;;;;;;;130.50;42.63;;;;;;;-0.27;95.96;99470.38;4986941;28;20137;-64
2020/12/11 22:08:39;;;;;;;127.50;45.95;;;;;;;-0.35;96.56;99459.41;5004936;28;20168;-62
2020/12/11 22:11:08;;;;;;;119.03;45.03;;;;;;;-0.39;97.41;99465.59;4998543;28;20076;-62
2020/12/11 22:13:35;;;;;;;116.85;40.88;;;;;;;-0.27;97.11;99465.19;4994983;28;20117;-62
2020/12/11 22:16:02;;;;;;;150.98;49.72;;;;;;;-0.05;97.95;99462.69;5006727;28;20048;-59
2020/12/11 22:18:29;;;;;;;136.00;42.85;;;;;;;-0.06;96.25;99468.78;4999005;28;20062;-62
2020/12/11 22:20:56;;;;;;;124.18;40.80;;;;;;;-0.18;96.71;99470.94;4999789;28;20072;-62
2020/12/11 22:23:27;;;;;;;126.45;44.03;;;;;;;0.01;95.91;99471.19;5003523;28;20046;-62
2020/12/11 22:25:54;;;;;;;124.57;41.58;;;;;;;-0.06;96.19;99471.38;4973406;28;20124;-62
2020/12/11 22:28:20;;;;;;;132.70;45.70;;;;;;;-0.03;95.96;99465.25;5004945;28;20064;-63
2020/12/11 22:30:47;;;;;;;127.22;43.85;;;;;;;0.07;95.65;99465.78;5012633;28;20050;-62
2020/12/11 22:33:14;;;;;;;127.82;43.78;;;;;;;-0.02;96.25;99459.19;4999568;28;20534;-61
2020/12/11 22:35:41;;;;;;;131.23;44.47;;;;;;;-0.06;96.86;99460.19;4985105;28;20053;-63
2020/12/11 22:38:08;;;;;;;127.63;44.08;;;;;;;-0.01;96.38;99459.13;5003999;28;20224;-64
2020/12/11 22:40:34;;;;;;;118.28;43.38;;;;;;;-0.09;96.40;99463.72;5000277;28;20042;-65
2020/12/11 22:43:01;;;;;;;133.13;44.88;;;;;;;0.02;96.72;99465.09;4984387;28;20050;-65
2020/12/11 22:45:28;;;;;;;140.27;45.40;;;;;;;-0.05;96.15;99459.28;5003107;28;20402;-61
2020/12/11 22:47:55;;;;;;;121.65;46.05;;;;;;;0.08;96.07;99457.09;4998784;28;20068;-65
2020/12/11 22:50:25;;;;;;;119.45;42.42;;;;;;;0.12;96.31;99461.28;5004682;28;20042;-65
2020/12/11 22:52:53;;;;;;;136.38;49.17;;;;;;;0.12;95.86;99462.13;4997621;28;20198;-65
2020/12/11 22:55:21;;;;;;;130.55;43.10;;;;;;;0.11;96.38;99451.84;5000468;28;20060;-64
2020/12/11 22:57:48;;;;;;;135.35;45.00;;;;;;;0.11;96.41;99452.69;4982222;28;20116;-63
2020/12/11 23:00:15;;;;;;;129.18;43.58;;;;;;;0.19;95.89;99445.50;4996025;28;20061;-63
2020/12/11 23:02:44;;;;;;;128.05;42.25;;;;;;;0.13;96.19;99447.44;4994597;28;20074;-63
2020/12/11 23:05:12;;;;;;;124.10;46.38;;;;;;;0.04;95.90;99452.94;5005204;28;20041;-66
2020/12/11 23:07:39;;;;;;;125.45;43.20;;;;;;;0.18;96.13;99448.13;4984430;28;20146;-64
2020/12/11 23:10:07;;;;;;;137.38;44.88;;;;;;;0.20;95.89;99438.56;4998042;28;20065;-64
2020/12/11 23:12:34;;;;;;;126.53;45.60;;;;;;;0.17;95.96;99436.94;5004404;28;20823;-61
2020/12/11 23:15:01;;;;;;;123.47;43.13;;;;;;;0.31;95.37;99440.75;4977053;28;20046;-65
2020/12/11 23:17:28;;;;;;;137.57;45.20;;;;;;;0.25;96.11;99441.84;4994762;28;20050;-64
2020/12/11 23:19:55;;;;;;;134.60;47.10;;;;;;;0.33;95.55;99434.66;5009798;28;20052;-61
2020/12/11 23:22:22;;;;;;;129.27;43.53;;;;;;;0.40;95.01;99433.50;5005203;28;20123;-64
2020/12/11 23:24:49;;;;;;;137.43;48.22;;;;;;;0.31;95.68;99430.41;4977636;28;20076;-64
2020/12/11 23:27:18;;;;;;;124.40;44.00;;;;;;;0.36;95.33;99436.25;5001591;28;20045;-60
2020/12/11 23:29:47;;;;;;;128.43;46.55;;;;;;;0.54;94.88;99437.34;4984443;28;20089;-62
2020/12/11 23:32:15;;;;;;;128.35;45.83;;;;;;;0.42;94.66;99434.31;4995247;28;20053;-64
2020/12/11 23:34:41;;;;;;;121.50;46.20;;;;;;;0.37;95.05;99435.38;5001263;28;20093;-64
2020/12/11 23:37:08;;;;;;;121.32;45.88;;;;;;;0.46;95.98;99427.28;5000097;28;20141;-63
2020/12/11 23:39:35;;;;;;;129.18;46.08;;;;;;;0.52;94.70;99427.03;5002605;28;20595;-61
2020/12/11 23:42:02;;;;;;;125.40;45.45;;;;;;;0.64;94.36;99431.78;4993287;28;20060;-61
2020/12/11 23:44:30;;;;;;;123.13;43.90;;;;;;;0.69;94.54;99419.50;4980194;28;20057;-61
2020/12/11 23:46:57;;;;;;;127.18;44.08;;;;;;;0.80;94.38;99421.66;4970285;28;20053;-64
2020/12/11 23:49:24;;;;;;;122.53;44.45;;;;;;;0.85;94.00;99421.50;5006746;28;20550;-64
2020/12/11 23:51:51;;;;;;;119.80;45.97;;;;;;;0.71;93.39;99419.44;4983521;28;20061;-65
2020/12/11 23:54:18;;;;;;;114.80;43.47;;;;;;;0.67;93.68;99413.50;4999815;28;20064;-64
2020/12/11 23:56:45;;;;;;;116.82;43.63;;;;;;;0.66;94.17;99414.41;5000652;28;20257;-65
2020/12/11 23:59:13;;;;;;;132.77;47.15;;;;;;;0.60;94.13;99414.66;4984541;28;20042;-64
